Hong Xiang 2 — BYBA — position and weather

sailwx.info

Track history (hours):
 
Tides and Currents Weather Stations Pressure Air Temp Water Temp Dewpoint Dewpoint Depression Visibility Wind Speed Wind Dir Waves Ship Positions

Hong Xiang 2

Last reported at 2015-May-02 05:32 UTC. Time now 2015-May-04 15:03 UTC.
Position N 23°02' E 116°38'.

Length 96 m; draft 5 m.

Type: Ship (hazmat cat A). MMSI: 413413000.

Date/timePositionNaut miles runAvg speedWind from/ knotsBaromVisibWave heightAir tempDewpointWater temp
2015-May-02 05:32N 23°02' E 116°38'1111.0
2015-May-02 04:33N 23°09' E 116°46'8 8.5
2015-May-02 03:33N 23°18' E 116°47'9 8.8
2015-May-02 02:33N 23°20' E 116°38'9 8.9
2015-May-02 01:33N 23°26' E 116°31'  
2015-Apr-29 00:25N 23°27' E 116°28'7 8.2
2015-Apr-28 23:33N 23°23' E 116°34'1010.1
2015-Apr-28 22:33N 23°20' E 116°44'10 9.6
2015-Apr-28 21:33N 23°11' E 116°49'1111.6
2015-Apr-28 20:33N 23°03' E 116°40'20111.0
2015-Apr-28 02:23N 21°52' E 113°18'5 6.5
2015-Apr-28 01:33N 21°55' E 113°13'0 0.1
2015-Apr-28 00:29N 21°55' E 113°13'0 0.0
2015-Apr-27 22:23N 21°55' E 113°13'0 0.0
2015-Apr-27 21:23N 21°55' E 113°13'0 0.0
2015-Apr-27 19:29N 21°55' E 113°13'0 0.0
2015-Apr-27 18:29N 21°55' E 113°13'0 0.0
2015-Apr-27 17:23N 21°55' E 113°13'0 0.0
2015-Apr-27 16:23N 21°55' E 113°13'0 0.0
2015-Apr-27 13:29N 21°55' E 113°13'0 0.0
2015-Apr-27 12:29N 21°55' E 113°13'0 0.0
2015-Apr-27 11:23N 21°55' E 113°13'0 0.0
2015-Apr-27 10:29N 21°55' E 113°13'0 0.0
2015-Apr-27 09:29N 21°55' E 113°13'0 0.0
2015-Apr-27 08:17N 21°55' E 113°13'0 0.0
2015-Apr-27 07:29N 21°55' E 113°13'0 0.0
2015-Apr-27 06:29N 21°55' E 113°13'0 0.0
2015-Apr-27 05:29N 21°55' E 113°13'1 1.0
2015-Apr-27 04:33N 21°54' E 113°13'204 4.5
2015-Apr-25 07:26N 23°03' E 116°40'1010.6
2015-Apr-25 06:28N 23°11' E 116°47'7 7.8
2015-Apr-25 05:33N 23°18' E 116°47'10 9.8
2015-Apr-25 04:33N 23°21' E 116°37'1110.6
2015-Apr-25 03:33N 23°27' E 116°28'2 0.1
2015-Apr-24 07:33N 23°26' E 116°30'10 9.8
2015-Apr-24 06:33N 23°20' E 116°39'207 8.6
2015-Apr-23 06:32N 21°51' E 113°17'5 5.0
2015-Apr-23 05:33N 21°55' E 113°13'0 0.1
2015-Apr-23 04:33N 21°55' E 113°13'0 0.0
2015-Apr-23 02:27N 21°55' E 113°13'0 0.0
2015-Apr-23 01:33N 21°55' E 113°13'0 0.0
2015-Apr-23 00:33N 21°55' E 113°13'0 0.0
2015-Apr-22 23:33N 21°55' E 113°13'659658.9
2015-Apr-22 22:33N 29°48' E 121°41'659548.5
2015-Apr-22 21:21N 21°55' E 113°13'0 0.0
2015-Apr-22 20:33N 21°55' E 113°13'0 0.0
2015-Apr-22 19:33N 21°55' E 113°13'0 0.0
2015-Apr-22 18:33N 21°55' E 113°13'0 0.0
2015-Apr-22 17:27N 21°55' E 113°13'0 0.0
2015-Apr-22 16:27N 21°55' E 113°13'0 0.0
2015-Apr-22 15:33N 21°55' E 113°13'0 0.0
2015-Apr-22 14:33N 21°55' E 113°13'0 0.0
2015-Apr-22 13:33N 21°55' E 113°13'0 0.0
2015-Apr-22 11:33N 21°55' E 113°13'0 0.0
2015-Apr-22 10:33N 21°55' E 113°13'0 0.0
2015-Apr-22 09:33N 21°55' E 113°13'0 0.0
2015-Apr-22 08:33N 21°55' E 113°13'0 0.0
2015-Apr-22 06:27N 21°55' E 113°13'  
Track history (hours):
 
Tides and Currents Weather Stations Pressure Air Temp Water Temp Dewpoint Dewpoint Depression Visibility Wind Speed Wind Dir Waves Ship Positions

Hong Xiang 2

Last reported at 2015-May-02 05:32 UTC. Time now 2015-May-04 15:03 UTC.
Position N 23°02' E 116°38'.

Length 96 m; draft 5 m.

Type: Ship (hazmat cat A). MMSI: 413413000.

Date/timePositionNaut miles runAvg speedWind from/ knotsBaromVisibWave heightAir tempDewpointWater temp
2015-May-02 05:32N 23°02' E 116°38'1111.0
2015-May-02 04:33N 23°09' E 116°46'8 8.5
2015-May-02 03:33N 23°18' E 116°47'9 8.8
2015-May-02 02:33N 23°20' E 116°38'9 8.9
2015-May-02 01:33N 23°26' E 116°31'  
2015-Apr-29 00:25N 23°27' E 116°28'7 8.2
2015-Apr-28 23:33N 23°23' E 116°34'1010.1
2015-Apr-28 22:33N 23°20' E 116°44'10 9.6
2015-Apr-28 21:33N 23°11' E 116°49'1111.6
2015-Apr-28 20:33N 23°03' E 116°40'20111.0
2015-Apr-28 02:23N 21°52' E 113°18'5 6.5
2015-Apr-28 01:33N 21°55' E 113°13'0 0.1
2015-Apr-28 00:29N 21°55' E 113°13'0 0.0
2015-Apr-27 22:23N 21°55' E 113°13'0 0.0
2015-Apr-27 21:23N 21°55' E 113°13'0 0.0
2015-Apr-27 19:29N 21°55' E 113°13'0 0.0
2015-Apr-27 18:29N 21°55' E 113°13'0 0.0
2015-Apr-27 17:23N 21°55' E 113°13'0 0.0
2015-Apr-27 16:23N 21°55' E 113°13'0 0.0
2015-Apr-27 13:29N 21°55' E 113°13'0 0.0
2015-Apr-27 12:29N 21°55' E 113°13'0 0.0
2015-Apr-27 11:23N 21°55' E 113°13'0 0.0
2015-Apr-27 10:29N 21°55' E 113°13'0 0.0
2015-Apr-27 09:29N 21°55' E 113°13'0 0.0
2015-Apr-27 08:17N 21°55' E 113°13'0 0.0
2015-Apr-27 07:29N 21°55' E 113°13'0 0.0
2015-Apr-27 06:29N 21°55' E 113°13'0 0.0
2015-Apr-27 05:29N 21°55' E 113°13'1 1.0
2015-Apr-27 04:33N 21°54' E 113°13'204 4.5
2015-Apr-25 07:26N 23°03' E 116°40'1010.6
2015-Apr-25 06:28N 23°11' E 116°47'7 7.8
2015-Apr-25 05:33N 23°18' E 116°47'10 9.8
2015-Apr-25 04:33N 23°21' E 116°37'1110.6
2015-Apr-25 03:33N 23°27' E 116°28'2 0.1
2015-Apr-24 07:33N 23°26' E 116°30'10 9.8
2015-Apr-24 06:33N 23°20' E 116°39'207 8.6
2015-Apr-23 06:32N 21°51' E 113°17'5 5.0
2015-Apr-23 05:33N 21°55' E 113°13'0 0.1
2015-Apr-23 04:33N 21°55' E 113°13'0 0.0
2015-Apr-23 02:27N 21°55' E 113°13'0 0.0
2015-Apr-23 01:33N 21°55' E 113°13'0 0.0
2015-Apr-23 00:33N 21°55' E 113°13'0 0.0
2015-Apr-22 23:33N 21°55' E 113°13'659658.9
2015-Apr-22 22:33N 29°48' E 121°41'659548.5
2015-Apr-22 21:21N 21°55' E 113°13'0 0.0
2015-Apr-22 20:33N 21°55' E 113°13'0 0.0
2015-Apr-22 19:33N 21°55' E 113°13'0 0.0
2015-Apr-22 18:33N 21°55' E 113°13'0 0.0
2015-Apr-22 17:27N 21°55' E 113°13'0 0.0
2015-Apr-22 16:27N 21°55' E 113°13'0 0.0
2015-Apr-22 15:33N 21°55' E 113°13'0 0.0
2015-Apr-22 14:33N 21°55' E 113°13'0 0.0
2015-Apr-22 13:33N 21°55' E 113°13'0 0.0
2015-Apr-22 11:33N 21°55' E 113°13'0 0.0
2015-Apr-22 10:33N 21°55' E 113°13'0 0.0
2015-Apr-22 09:33N 21°55' E 113°13'0 0.0
2015-Apr-22 08:33N 21°55' E 113°13'0 0.0
2015-Apr-22 06:27N 21°55' E 113°13'  

Dump ship's entire track history